sensor_id;sensor_type;location;lat;lon;timestamp;temperature;humidity
15638;DHT22;26604;53.596;10.042;2023-11-22T05:35:50;-0.40;99.90
15638;DHT22;26604;53.596;10.042;2023-11-22T05:38:16;-0.40;99.90
15638;DHT22;26604;53.596;10.042;2023-11-22T05:40:43;-0.40;99.90
15638;DHT22;26604;53.596;10.042;2023-11-22T05:43:10;-0.40;99.90
15638;DHT22;26604;53.596;10.042;2023-11-22T05:45:38;-0.40;99.90
15638;DHT22;26604;53.596;10.042;2023-11-22T05:48:05;-0.40;1.00
15638;DHT22;26604;53.596;10.042;2023-11-22T05:50:31;-0.40;1.00
15638;DHT22;26604;53.596;10.042;2023-11-22T05:53:00;-0.40;1.00
15638;DHT22;26604;53.596;10.042;2023-11-22T05:55:26;-0.40;1.00
15638;DHT22;26604;53.596;10.042;2023-11-22T05:57:54;-0.40;1.00
15638;DHT22;26604;53.596;10.042;2023-11-22T06:00:21;-0.40;1.00
15638;DHT22;26604;53.596;10.042;2023-11-22T06:02:48;-0.40;1.00
15638;DHT22;26604;53.596;10.042;2023-11-22T06:05:15;-0.40;1.00
15638;DHT22;26604;53.596;10.042;2023-11-22T06:07:41;-0.40;1.00
15638;DHT22;26604;53.596;10.042;2023-11-22T06:10:10;-0.30;1.00
15638;DHT22;26604;53.596;10.042;2023-11-22T06:12:39;-0.30;1.00
15638;DHT22;26604;53.596;10.042;2023-11-22T06:15:07;-0.20;31.20
15638;DHT22;26604;53.596;10.042;2023-11-22T06:17:34;-0.30;1.00
15638;DHT22;26604;53.596;10.042;2023-11-22T06:20:01;-0.20;62.20
15638;DHT22;26604;53.596;10.042;2023-11-22T06:22:28;-0.20;80.90
15638;DHT22;26604;53.596;10.042;2023-11-22T06:24:56;-0.20;97.00
15638;DHT22;26604;53.596;10.042;2023-11-22T06:27:24;-0.20;99.90
15638;DHT22;26604;53.596;10.042;2023-11-22T06:29:51;-0.20;99.90
15638;DHT22;26604;53.596;10.042;2023-11-22T06:32:17;-0.20;99.90
15638;DHT22;26604;53.596;10.042;2023-11-22T06:34:44;-0.20;99.90
15638;DHT22;26604;53.596;10.042;2023-11-22T06:37:12;-0.10;99.90
15638;DHT22;26604;53.596;10.042;2023-11-22T06:39:38;-0.10;99.90
15638;DHT22;26604;53.596;10.042;2023-11-22T06:42:17;0.00;99.90
15638;DHT22;26604;53.596;10.042;2023-11-22T06:44:46;0.00;34.40
15638;DHT22;26604;53.596;10.042;2023-11-22T06:47:13;0.00;20.00
15638;DHT22;26604;53.596;10.042;2023-11-22T06:49:40;0.10;16.40
15638;DHT22;26604;53.596;10.042;2023-11-22T06:52:07;0.10;34.70
15638;DHT22;26604;53.596;10.042;2023-11-22T06:54:34;0.10;49.70
15638;DHT22;26604;53.596;10.042;2023-11-22T06:57:02;0.20;63.80
15638;DHT22;26604;53.596;10.042;2023-11-22T06:59:29;0.30;99.90
15638;DHT22;26604;53.596;10.042;2023-11-22T07:01:57;0.40;99.90
15638;DHT22;26604;53.596;10.042;2023-11-22T07:04:24;0.50;99.90
15638;DHT22;26604;53.596;10.042;2023-11-22T07:06:51;0.50;99.90
15638;DHT22;26604;53.596;10.042;2023-11-22T07:09:17;0.60;99.90
15638;DHT22;26604;53.596;10.042;2023-11-22T07:11:44;0.60;99.90
15638;DHT22;26604;53.596;10.042;2023-11-22T07:14:11;0.70;99.90
15638;DHT22;26604;53.596;10.042;2023-11-22T07:16:39;0.70;99.90
15638;DHT22;26604;53.596;10.042;2023-11-22T07:19:07;0.80;99.90
15638;DHT22;26604;53.596;10.042;2023-11-22T07:21:34;0.80;99.90
15638;DHT22;26604;53.596;10.042;2023-11-22T07:24:04;0.90;99.90
15638;DHT22;26604;53.596;10.042;2023-11-22T07:26:32;0.90;99.90
15638;DHT22;26604;53.596;10.042;2023-11-22T07:28:59;0.90;99.90
15638;DHT22;26604;53.596;10.042;2023-11-22T07:31:26;1.00;99.90
15638;DHT22;26604;53.596;10.042;2023-11-22T07:33:54;1.00;99.90
15638;DHT22;26604;53.596;10.042;2023-11-22T07:36:23;1.10;99.90
15638;DHT22;26604;53.596;10.042;2023-11-22T07:38:50;1.10;99.90
15638;DHT22;26604;53.596;10.042;2023-11-22T07:41:19;1.20;99.90
15638;DHT22;26604;53.596;10.042;2023-11-22T07:43:46;1.20;99.90
15638;DHT22;26604;53.596;10.042;2023-11-22T07:46:13;1.30;99.90
15638;DHT22;26604;53.596;10.042;2023-11-22T07:48:41;1.30;99.90
15638;DHT22;26604;53.596;10.042;2023-11-22T07:51:08;1.40;99.90
15638;DHT22;26604;53.596;10.042;2023-11-22T07:53:36;1.40;99.90
15638;DHT22;26604;53.596;10.042;2023-11-22T07:56:05;1.50;99.90
15638;DHT22;26604;53.596;10.042;2023-11-22T07:58:34;1.50;99.90
15638;DHT22;26604;53.596;10.042;2023-11-22T08:01:01;1.50;99.90
15638;DHT22;26604;53.596;10.042;2023-11-22T08:03:35;1.60;99.90
15638;DHT22;26604;53.596;10.042;2023-11-22T08:06:02;1.70;99.90
15638;DHT22;26604;53.596;10.042;2023-11-22T08:08:30;1.80;99.90
15638;DHT22;26604;53.596;10.042;2023-11-22T08:11:01;1.80;99.90
15638;DHT22;26604;53.596;10.042;2023-11-22T08:13:29;2.00;99.90
15638;DHT22;26604;53.596;10.042;2023-11-22T08:15:56;2.00;99.90
15638;DHT22;26604;53.596;10.042;2023-11-22T08:18:23;2.10;99.90
15638;DHT22;26604;53.596;10.042;2023-11-22T08:20:49;2.10;99.90
15638;DHT22;26604;53.596;10.042;2023-11-22T08:23:16;2.20;99.90
15638;DHT22;26604;53.596;10.042;2023-11-22T08:25:43;2.30;99.90
15638;DHT22;26604;53.596;10.042;2023-11-22T08:28:12;2.30;99.90
15638;DHT22;26604;53.596;10.042;2023-11-22T08:30:39;2.40;99.90
15638;DHT22;26604;53.596;10.042;2023-11-22T08:33:06;2.50;99.90
15638;DHT22;26604;53.596;10.042;2023-11-22T08:35:33;2.50;99.90
15638;DHT22;26604;53.596;10.042;2023-11-22T08:38:00;2.50;53.40
15638;DHT22;26604;53.596;10.042;2023-11-22T08:40:29;2.70;54.70
15638;DHT22;26604;53.596;10.042;2023-11-22T08:42:56;2.80;59.40
15638;DHT22;26604;53.596;10.042;2023-11-22T08:45:24;2.80;86.30
15638;DHT22;26604;53.596;10.042;2023-11-22T08:47:51;2.90;44.90
15638;DHT22;26604;53.596;10.042;2023-11-22T08:50:18;3.00;99.90
15638;DHT22;26604;53.596;10.042;2023-11-22T08:52:45;3.10;99.90
15638;DHT22;26604;53.596;10.042;2023-11-22T08:55:12;3.10;99.90
15638;DHT22;26604;53.596;10.042;2023-11-22T08:57:40;3.20;99.90
15638;DHT22;26604;53.596;10.042;2023-11-22T09:00:07;3.30;15.20
15638;DHT22;26604;53.596;10.042;2023-11-22T09:02:37;3.30;99.90
15638;DHT22;26604;53.596;10.042;2023-11-22T09:05:05;3.40;52.70
15638;DHT22;26604;53.596;10.042;2023-11-22T09:07:34;3.40;75.80
15638;DHT22;26604;53.596;10.042;2023-11-22T09:10:01;3.50;49.20
15638;DHT22;26604;53.596;10.042;2023-11-22T09:12:35;3.60;98.60
15638;DHT22;26604;53.596;10.042;2023-11-22T09:15:03;3.70;99.50
15638;DHT22;26604;53.596;10.042;2023-11-22T09:17:34;3.80;99.90
15638;DHT22;26604;53.596;10.042;2023-11-22T09:20:03;3.80;85.40
15638;DHT22;26604;53.596;10.042;2023-11-22T09:22:31;3.80;92.10
15638;DHT22;26604;53.596;10.042;2023-11-22T09:24:58;3.90;99.90
15638;DHT22;26604;53.596;10.042;2023-11-22T09:27:25;4.00;99.90
15638;DHT22;26604;53.596;10.042;2023-11-22T09:29:52;4.00;99.90
15638;DHT22;26604;53.596;10.042;2023-11-22T09:32:20;4.10;99.90
15638;DHT22;26604;53.596;10.042;2023-11-22T09:34:46;4.20;99.90
15638;DHT22;26604;53.596;10.042;2023-11-22T09:37:15;4.20;99.90
15638;DHT22;26604;53.596;10.042;2023-11-22T09:39:42;4.30;99.90
15638;DHT22;26604;53.596;10.042;2023-11-22T09:42:08;4.40;99.90
15638;DHT22;26604;53.596;10.042;2023-11-22T09:44:37;4.50;99.90
15638;DHT22;26604;53.596;10.042;2023-11-22T09:47:04;4.60;99.90
15638;DHT22;26604;53.596;10.042;2023-11-22T09:49:32;4.70;99.90
15638;DHT22;26604;53.596;10.042;2023-11-22T09:52:04;4.70;99.90
15638;DHT22;26604;53.596;10.042;2023-11-22T09:54:35;4.70;99.90
15638;DHT22;26604;53.596;10.042;2023-11-22T09:57:04;4.80;99.90
15638;DHT22;26604;53.596;10.042;2023-11-22T09:59:36;4.80;99.90
15638;DHT22;26604;53.596;10.042;2023-11-22T10:02:05;4.90;99.90
15638;DHT22;26604;53.596;10.042;2023-11-22T10:04:32;4.90;99.90
15638;DHT22;26604;53.596;10.042;2023-11-22T10:07:00;5.00;45.20
15638;DHT22;26604;53.596;10.042;2023-11-22T10:09:27;5.00;99.90
15638;DHT22;26604;53.596;10.042;2023-11-22T10:12:01;5.10;99.90
15638;DHT22;26604;53.596;10.042;2023-11-22T10:14:29;5.10;99.90
15638;DHT22;26604;53.596;10.042;2023-11-22T10:17:00;5.10;99.90
15638;DHT22;26604;53.596;10.042;2023-11-22T10:19:27;5.20;99.90
15638;DHT22;26604;53.596;10.042;2023-11-22T10:22:05;5.20;1.00
15638;DHT22;26604;53.596;10.042;2023-11-22T10:24:32;5.30;71.10
15638;DHT22;26604;53.596;10.042;2023-11-22T10:27:02;5.40;1.00
15638;DHT22;26604;53.596;10.042;2023-11-22T10:29:29;5.50;1.00
15638;DHT22;26604;53.596;10.042;2023-11-22T10:31:56;5.50;1.00
15638;DHT22;26604;53.596;10.042;2023-11-22T10:34:24;5.60;1.00
15638;DHT22;26604;53.596;10.042;2023-11-22T10:36:51;5.60;1.00
15638;DHT22;26604;53.596;10.042;2023-11-22T10:39:19;5.70;99.90
15638;DHT22;26604;53.596;10.042;2023-11-22T10:41:47;5.70;99.90
15638;DHT22;26604;53.596;10.042;2023-11-22T10:44:19;5.80;99.90
15638;DHT22;26604;53.596;10.042;2023-11-22T10:46:47;5.90;1.00
15638;DHT22;26604;53.596;10.042;2023-11-22T10:49:14;5.90;99.90
15638;DHT22;26604;53.596;10.042;2023-11-22T10:51:41;6.00;99.90
15638;DHT22;26604;53.596;10.042;2023-11-22T10:54:10;6.00;1.00
15638;DHT22;26604;53.596;10.042;2023-11-22T10:56:39;6.00;1.00
15638;DHT22;26604;53.596;10.042;2023-11-22T10:59:10;6.10;1.00
15638;DHT22;26604;53.596;10.042;2023-11-22T11:01:44;6.10;1.00
15638;DHT22;26604;53.596;10.042;2023-11-22T11:04:19;6.20;1.00
15638;DHT22;26604;53.596;10.042;2023-11-22T11:06:51;6.20;1.00
15638;DHT22;26604;53.596;10.042;2023-11-22T11:09:19;6.30;99.90
15638;DHT22;26604;53.596;10.042;2023-11-22T11:11:47;6.30;99.90
15638;DHT22;26604;53.596;10.042;2023-11-22T11:14:14;6.30;40.80
15638;DHT22;26604;53.596;10.042;2023-11-22T11:16:45;6.40;99.90
15638;DHT22;26604;53.596;10.042;2023-11-22T11:19:16;6.40;99.90
15638;DHT22;26604;53.596;10.042;2023-11-22T11:21:44;6.40;99.90
15638;DHT22;26604;53.596;10.042;2023-11-22T11:24:11;6.40;7.80
15638;DHT22;26604;53.596;10.042;2023-11-22T11:26:37;6.40;18.20
15638;DHT22;26604;53.596;10.042;2023-11-22T11:29:04;6.40;1.00
15638;DHT22;26604;53.596;10.042;2023-11-22T11:31:34;6.40;1.00
15638;DHT22;26604;53.596;10.042;2023-11-22T11:34:06;6.40;1.00
15638;DHT22;26604;53.596;10.042;2023-11-22T11:36:33;6.40;1.00
15638;DHT22;26604;53.596;10.042;2023-11-22T11:39:06;6.40;1.00
15638;DHT22;26604;53.596;10.042;2023-11-22T11:41:35;6.40;1.00
15638;DHT22;26604;53.596;10.042;2023-11-22T11:44:03;6.40;1.00
15638;DHT22;26604;53.596;10.042;2023-11-22T11:46:30;6.30;1.00
15638;DHT22;26604;53.596;10.042;2023-11-22T11:48:58;6.30;1.00
15638;DHT22;26604;53.596;10.042;2023-11-22T11:51:28;6.30;99.90
15638;DHT22;26604;53.596;10.042;2023-11-22T11:53:55;6.40;99.90
15638;DHT22;26604;53.596;10.042;2023-11-22T11:56:22;6.40;99.90
15638;DHT22;26604;53.596;10.042;2023-11-22T11:58:53;6.40;99.90
15638;DHT22;26604;53.596;10.042;2023-11-22T12:01:20;6.50;90.00
15638;DHT22;26604;53.596;10.042;2023-11-22T12:03:47;6.60;21.20
15638;DHT22;26604;53.596;10.042;2023-11-22T12:06:15;6.60;1.00
15638;DHT22;26604;53.596;10.042;2023-11-22T12:08:43;6.50;1.00
15638;DHT22;26604;53.596;10.042;2023-11-22T12:11:10;6.50;99.90
15638;DHT22;26604;53.596;10.042;2023-11-22T12:13:38;6.50;1.00
15638;DHT22;26604;53.596;10.042;2023-11-22T12:16:07;6.50;1.00
15638;DHT22;26604;53.596;10.042;2023-11-22T12:18:40;6.50;29.40
15638;DHT22;26604;53.596;10.042;2023-11-22T12:21:08;6.50;74.30
15638;DHT22;26604;53.596;10.042;2023-11-22T12:23:38;6.50;1.00
15638;DHT22;26604;53.596;10.042;2023-11-22T12:26:10;6.50;1.00
15638;DHT22;26604;53.596;10.042;2023-11-22T12:28:39;6.50;1.00
15638;DHT22;26604;53.596;10.042;2023-11-22T12:31:07;6.50;1.00
15638;DHT22;26604;53.596;10.042;2023-11-22T12:33:35;6.40;1.00
15638;DHT22;26604;53.596;10.042;2023-11-22T12:36:02;6.40;99.90
15638;DHT22;26604;53.596;10.042;2023-11-22T12:38:29;6.40;67.50
15638;DHT22;26604;53.596;10.042;2023-11-22T12:40:57;6.30;23.00
15638;DHT22;26604;53.596;10.042;2023-11-22T12:43:25;6.20;1.00
15638;DHT22;26604;53.596;10.042;2023-11-22T12:45:58;6.20;1.00
15638;DHT22;26604;53.596;10.042;2023-11-22T12:48:26;6.10;1.00
15638;DHT22;26604;53.596;10.042;2023-11-22T12:50:55;6.10;1.00
15638;DHT22;26604;53.596;10.042;2023-11-22T12:53:23;6.10;1.00
15638;DHT22;26604;53.596;10.042;2023-11-22T12:55:53;6.10;99.90
15638;DHT22;26604;53.596;10.042;2023-11-22T12:58:22;6.00;99.90
15638;DHT22;26604;53.596;10.042;2023-11-22T13:00:52;6.00;99.90
15638;DHT22;26604;53.596;10.042;2023-11-22T13:03:24;6.00;99.90
15638;DHT22;26604;53.596;10.042;2023-11-22T13:05:51;5.90;99.90
15638;DHT22;26604;53.596;10.042;2023-11-22T13:08:19;5.90;99.90
15638;DHT22;26604;53.596;10.042;2023-11-22T13:10:48;5.90;1.00
15638;DHT22;26604;53.596;10.042;2023-11-22T13:13:19;5.90;1.00
15638;DHT22;26604;53.596;10.042;2023-11-22T13:15:46;5.80;1.00
15638;DHT22;26604;53.596;10.042;2023-11-22T13:18:14;5.80;99.90
15638;DHT22;26604;53.596;10.042;2023-11-22T13:20:42;5.80;99.90
15638;DHT22;26604;53.596;10.042;2023-11-22T13:23:10;5.80;35.60
15638;DHT22;26604;53.596;10.042;2023-11-22T13:25:37;5.80;1.00
15638;DHT22;26604;53.596;10.042;2023-11-22T13:28:04;5.70;99.90
15638;DHT22;26604;53.596;10.042;2023-11-22T13:30:32;5.70;99.90
15638;DHT22;26604;53.596;10.042;2023-11-22T13:32:58;5.70;16.90
15638;DHT22;26604;53.596;10.042;2023-11-22T13:35:28;5.70;47.90
15638;DHT22;26604;53.596;10.042;2023-11-22T13:37:57;5.60;1.00
15638;DHT22;26604;53.596;10.042;2023-11-22T13:40:24;5.50;1.00
15638;DHT22;26604;53.596;10.042;2023-11-22T13:42:57;5.50;1.00
15638;DHT22;26604;53.596;10.042;2023-11-22T13:45:25;5.50;1.00
15638;DHT22;26604;53.596;10.042;2023-11-22T13:47:53;5.50;1.00
15638;DHT22;26604;53.596;10.042;2023-11-22T13:50:23;5.50;1.00
15638;DHT22;26604;53.596;10.042;2023-11-22T13:52:54;5.40;1.00
15638;DHT22;26604;53.596;10.042;2023-11-22T13:55:22;5.40;1.00
15638;DHT22;26604;53.596;10.042;2023-11-22T13:57:50;5.30;1.00
15638;DHT22;26604;53.596;10.042;2023-11-22T14:00:18;5.30;1.00
15638;DHT22;26604;53.596;10.042;2023-11-22T14:02:48;5.30;1.00
15638;DHT22;26604;53.596;10.042;2023-11-22T14:05:16;5.30;99.90
15638;DHT22;26604;53.596;10.042;2023-11-22T14:07:44;5.30;1.00
15638;DHT22;26604;53.596;10.042;2023-11-22T14:10:12;5.20;1.00
15638;DHT22;26604;53.596;10.042;2023-11-22T14:12:42;5.20;1.00
15638;DHT22;26604;53.596;10.042;2023-11-22T14:15:10;5.10;1.00
15638;DHT22;26604;53.596;10.042;2023-11-22T14:17:37;5.10;1.00
15638;DHT22;26604;53.596;10.042;2023-11-22T14:20:07;5.00;1.00
15638;DHT22;26604;53.596;10.042;2023-11-22T14:22:35;5.00;1.00
15638;DHT22;26604;53.596;10.042;2023-11-22T14:25:02;4.90;1.00
15638;DHT22;26604;53.596;10.042;2023-11-22T14:27:31;4.90;56.80
15638;DHT22;26604;53.596;10.042;2023-11-22T14:29:59;4.90;51.90
15638;DHT22;26604;53.596;10.042;2023-11-22T14:32:31;4.90;99.90
15638;DHT22;26604;53.596;10.042;2023-11-22T14:34:58;4.90;99.90
15638;DHT22;26604;53.596;10.042;2023-11-22T14:37:24;4.90;99.90
15638;DHT22;26604;53.596;10.042;2023-11-22T14:39:51;4.80;99.90
15638;DHT22;26604;53.596;10.042;2023-11-22T14:42:19;4.80;99.90
15638;DHT22;26604;53.596;10.042;2023-11-22T14:44:48;4.70;99.90
15638;DHT22;26604;53.596;10.042;2023-11-22T14:47:15;4.70;1.00
15638;DHT22;26604;53.596;10.042;2023-11-22T14:49:45;4.70;1.00
15638;DHT22;26604;53.596;10.042;2023-11-22T14:52:11;4.70;1.00
15638;DHT22;26604;53.596;10.042;2023-11-22T14:54:38;4.70;1.00
15638;DHT22;26604;53.596;10.042;2023-11-22T14:57:06;4.70;1.00
15638;DHT22;26604;53.596;10.042;2023-11-22T14:59:35;4.70;1.00
15638;DHT22;26604;53.596;10.042;2023-11-22T15:02:03;4.70;1.00
15638;DHT22;26604;53.596;10.042;2023-11-22T15:04:33;4.70;46.80
15638;DHT22;26604;53.596;10.042;2023-11-22T15:07:01;4.70;99.90
15638;DHT22;26604;53.596;10.042;2023-11-22T15:09:28;4.60;99.90
15638;DHT22;26604;53.596;10.042;2023-11-22T15:11:57;4.60;1.00
15638;DHT22;26604;53.596;10.042;2023-11-22T15:14:24;4.60;1.00
15638;DHT22;26604;53.596;10.042;2023-11-22T15:16:52;4.50;1.00
15638;DHT22;26604;53.596;10.042;2023-11-22T15:19:21;4.50;99.90
15638;DHT22;26604;53.596;10.042;2023-11-22T15:21:50;4.50;99.90
15638;DHT22;26604;53.596;10.042;2023-11-22T15:24:17;4.40;1.00
15638;DHT22;26604;53.596;10.042;2023-11-22T15:26:44;4.40;1.00
15638;DHT22;26604;53.596;10.042;2023-11-22T15:29:11;4.40;1.00
15638;DHT22;26604;53.596;10.042;2023-11-22T15:31:41;4.40;99.90
15638;DHT22;26604;53.596;10.042;2023-11-22T15:34:09;4.30;99.90
15638;DHT22;26604;53.596;10.042;2023-11-22T15:36:39;4.30;99.90
15638;DHT22;26604;53.596;10.042;2023-11-22T15:39:06;4.30;99.90
15638;DHT22;26604;53.596;10.042;2023-11-22T15:41:37;4.30;99.90
15638;DHT22;26604;53.596;10.042;2023-11-22T15:44:04;4.30;99.90
15638;DHT22;26604;53.596;10.042;2023-11-22T15:46:31;4.30;1.00
15638;DHT22;26604;53.596;10.042;2023-11-22T15:48:58;4.20;99.90
15638;DHT22;26604;53.596;10.042;2023-11-22T15:51:25;4.20;1.00
15638;DHT22;26604;53.596;10.042;2023-11-22T15:53:53;4.30;14.80
15638;DHT22;26604;53.596;10.042;2023-11-22T15:56:20;4.20;1.00
15638;DHT22;26604;53.596;10.042;2023-11-22T15:58:46;4.20;99.90
15638;DHT22;26604;53.596;10.042;2023-11-22T16:01:15;4.10;1.00
15638;DHT22;26604;53.596;10.042;2023-11-22T16:03:42;4.20;99.90
15638;DHT22;26604;53.596;10.042;2023-11-22T16:06:09;4.20;26.70
15638;DHT22;26604;53.596;10.042;2023-11-22T16:08:38;4.10;75.90
15638;DHT22;26604;53.596;10.042;2023-11-22T16:11:08;4.10;29.30
15638;DHT22;26604;53.596;10.042;2023-11-22T16:13:35;4.10;99.90
15638;DHT22;26604;53.596;10.042;2023-11-22T16:16:02;4.00;1.00
15638;DHT22;26604;53.596;10.042;2023-11-22T16:18:30;4.10;99.90
15638;DHT22;26604;53.596;10.042;2023-11-22T16:20:57;4.30;1.00
15638;DHT22;26604;53.596;10.042;2023-11-22T16:23:24;4.30;57.10
15638;DHT22;26604;53.596;10.042;2023-11-22T16:25:51;4.30;1.00
15638;DHT22;26604;53.596;10.042;2023-11-22T16:28:19;4.20;99.90
15638;DHT22;26604;53.596;10.042;2023-11-22T16:30:46;4.20;99.90
15638;DHT22;26604;53.596;10.042;2023-11-22T16:33:13;4.10;1.00
15638;DHT22;26604;53.596;10.042;2023-11-22T16:35:40;4.10;99.90
15638;DHT22;26604;53.596;10.042;2023-11-22T16:38:07;4.10;1.00
15638;DHT22;26604;53.596;10.042;2023-11-22T16:40:34;4.10;1.00
15638;DHT22;26604;53.596;10.042;2023-11-22T16:43:01;4.10;99.90
15638;DHT22;26604;53.596;10.042;2023-11-22T16:45:31;4.00;1.00
15638;DHT22;26604;53.596;10.042;2023-11-22T16:47:57;4.00;1.00
15638;DHT22;26604;53.596;10.042;2023-11-22T16:50:25;4.00;1.00
15638;DHT22;26604;53.596;10.042;2023-11-22T16:52:52;4.00;1.00
15638;DHT22;26604;53.596;10.042;2023-11-22T16:55:18;3.90;99.90
15638;DHT22;26604;53.596;10.042;2023-11-22T16:57:45;3.90;34.50
15638;DHT22;26604;53.596;10.042;2023-11-22T17:00:13;3.90;1.00
15638;DHT22;26604;53.596;10.042;2023-11-22T17:02:45;3.80;1.00
15638;DHT22;26604;53.596;10.042;2023-11-22T17:05:15;3.80;1.00
15638;DHT22;26604;53.596;10.042;2023-11-22T17:07:42;3.80;99.90
15638;DHT22;26604;53.596;10.042;2023-11-22T17:10:09;3.70;1.00
15638;DHT22;26604;53.596;10.042;2023-11-22T17:12:37;3.70;1.00
15638;DHT22;26604;53.596;10.042;2023-11-22T17:15:05;3.70;1.00
15638;DHT22;26604;53.596;10.042;2023-11-22T17:17:32;3.80;1.00
15638;DHT22;26604;53.596;10.042;2023-11-22T17:20:01;3.70;1.00
15638;DHT22;26604;53.596;10.042;2023-11-22T17:22:29;3.80;1.00
15638;DHT22;26604;53.596;10.042;2023-11-22T17:24:57;3.80;1.00
15638;DHT22;26604;53.596;10.042;2023-11-22T17:27:25;3.80;1.00
15638;DHT22;26604;53.596;10.042;2023-11-22T17:29:52;3.90;99.90
15638;DHT22;26604;53.596;10.042;2023-11-22T17:32:19;3.90;99.90
15638;DHT22;26604;53.596;10.042;2023-11-22T17:34:46;3.90;99.90
15638;DHT22;26604;53.596;10.042;2023-11-22T17:37:16;3.90;1.00
15638;DHT22;26604;53.596;10.042;2023-11-22T17:39:43;3.90;99.90
15638;DHT22;26604;53.596;10.042;2023-11-22T17:42:10;4.00;99.90
15638;DHT22;26604;53.596;10.042;2023-11-22T17:44:37;4.00;99.90
15638;DHT22;26604;53.596;10.042;2023-11-22T17:47:04;4.00;99.90
15638;DHT22;26604;53.596;10.042;2023-11-22T17:49:32;4.00;1.00
15638;DHT22;26604;53.596;10.042;2023-11-22T17:51:59;4.00;1.00
15638;DHT22;26604;53.596;10.042;2023-11-22T17:54:27;4.00;1.00
15638;DHT22;26604;53.596;10.042;2023-11-22T17:56:54;4.00;1.00
15638;DHT22;26604;53.596;10.042;2023-11-22T17:59:21;4.00;1.00
15638;DHT22;26604;53.596;10.042;2023-11-22T18:01:48;4.10;1.00
15638;DHT22;26604;53.596;10.042;2023-11-22T18:04:15;4.10;99.90
15638;DHT22;26604;53.596;10.042;2023-11-22T18:06:42;4.10;1.00
15638;DHT22;26604;53.596;10.042;2023-11-22T18:09:09;4.10;99.90
15638;DHT22;26604;53.596;10.042;2023-11-22T18:11:38;4.10;99.90
15638;DHT22;26604;53.596;10.042;2023-11-22T18:14:04;4.10;99.90
15638;DHT22;26604;53.596;10.042;2023-11-22T18:16:32;4.10;99.90
15638;DHT22;26604;53.596;10.042;2023-11-22T18:18:59;4.10;99.90
15638;DHT22;26604;53.596;10.042;2023-11-22T18:21:27;4.10;99.90
15638;DHT22;26604;53.596;10.042;2023-11-22T18:23:54;4.20;99.90
15638;DHT22;26604;53.596;10.042;2023-11-22T18:26:22;4.20;99.90
15638;DHT22;26604;53.596;10.042;2023-11-22T18:28:50;4.30;99.90
15638;DHT22;26604;53.596;10.042;2023-11-22T18:31:17;4.30;65.30
15638;DHT22;26604;53.596;10.042;2023-11-22T18:33:44;4.30;99.90
15638;DHT22;26604;53.596;10.042;2023-11-22T18:36:12;4.30;89.40
15638;DHT22;26604;53.596;10.042;2023-11-22T18:38:40;4.40;99.90
15638;DHT22;26604;53.596;10.042;2023-11-22T18:41:09;4.40;99.90
15638;DHT22;26604;53.596;10.042;2023-11-22T18:43:36;4.50;98.70
15638;DHT22;26604;53.596;10.042;2023-11-22T18:46:05;4.50;99.30
15638;DHT22;26604;53.596;10.042;2023-11-22T18:48:32;4.50;99.90
15638;DHT22;26604;53.596;10.042;2023-11-22T18:51:03;4.50;99.90
15638;DHT22;26604;53.596;10.042;2023-11-22T18:53:30;4.50;99.90
15638;DHT22;26604;53.596;10.042;2023-11-22T18:55:57;4.50;1.00
15638;DHT22;26604;53.596;10.042;2023-11-22T18:58:25;4.50;1.00
15638;DHT22;26604;53.596;10.042;2023-11-22T19:00:52;4.50;1.00
15638;DHT22;26604;53.596;10.042;2023-11-22T19:03:20;4.50;1.00
15638;DHT22;26604;53.596;10.042;2023-11-22T19:05:48;4.50;1.00
15638;DHT22;26604;53.596;10.042;2023-11-22T19:08:15;4.50;47.70
15638;DHT22;26604;53.596;10.042;2023-11-22T19:10:41;4.50;1.00
15638;DHT22;26604;53.596;10.042;2023-11-22T19:13:08;4.50;99.90
15638;DHT22;26604;53.596;10.042;2023-11-22T19:15:42;4.50;53.80
15638;DHT22;26604;53.596;10.042;2023-11-22T19:18:11;4.50;99.90
15638;DHT22;26604;53.596;10.042;2023-11-22T19:20:39;4.50;80.30
15638;DHT22;26604;53.596;10.042;2023-11-22T19:23:07;4.50;99.90
15638;DHT22;26604;53.596;10.042;2023-11-22T19:25:34;4.50;99.90
15638;DHT22;26604;53.596;10.042;2023-11-22T19:28:01;4.50;99.90
15638;DHT22;26604;53.596;10.042;2023-11-22T19:30:31;4.60;99.90
15638;DHT22;26604;53.596;10.042;2023-11-22T19:32:59;4.60;99.90
15638;DHT22;26604;53.596;10.042;2023-11-22T19:35:27;4.60;99.90
15638;DHT22;26604;53.596;10.042;2023-11-22T19:37:55;4.60;99.90
15638;DHT22;26604;53.596;10.042;2023-11-22T19:40:22;4.70;99.90
15638;DHT22;26604;53.596;10.042;2023-11-22T19:42:51;4.70;99.90
15638;DHT22;26604;53.596;10.042;2023-11-22T19:45:18;4.70;99.90
15638;DHT22;26604;53.596;10.042;2023-11-22T19:47:45;4.70;1.00
15638;DHT22;26604;53.596;10.042;2023-11-22T19:50:11;4.70;1.00
15638;DHT22;26604;53.596;10.042;2023-11-22T19:52:38;4.70;1.00
15638;DHT22;26604;53.596;10.042;2023-11-22T19:55:07;4.70;1.00
15638;DHT22;26604;53.596;10.042;2023-11-22T19:57:34;4.70;1.00
15638;DHT22;26604;53.596;10.042;2023-11-22T20:00:01;4.60;1.00
15638;DHT22;26604;53.596;10.042;2023-11-22T20:02:30;4.60;99.90
15638;DHT22;26604;53.596;10.042;2023-11-22T20:04:57;4.60;1.00
15638;DHT22;26604;53.596;10.042;2023-11-22T20:07:23;4.60;1.00
15638;DHT22;26604;53.596;10.042;2023-11-22T20:09:50;4.70;1.00
15638;DHT22;26604;53.596;10.042;2023-11-22T20:12:19;4.70;1.00
15638;DHT22;26604;53.596;10.042;2023-11-22T20:14:45;4.70;1.00
15638;DHT22;26604;53.596;10.042;2023-11-22T20:17:12;4.70;1.00
15638;DHT22;26604;53.596;10.042;2023-11-22T20:19:40;4.80;1.00
15638;DHT22;26604;53.596;10.042;2023-11-22T20:22:07;4.80;1.00
15638;DHT22;26604;53.596;10.042;2023-11-22T20:24:33;4.80;1.00
15638;DHT22;26604;53.596;10.042;2023-11-22T20:27:03;4.90;1.00
15638;DHT22;26604;53.596;10.042;2023-11-22T20:29:32;4.90;1.00
15638;DHT22;26604;53.596;10.042;2023-11-22T20:31:59;4.90;1.00
15638;DHT22;26604;53.596;10.042;2023-11-22T20:34:26;5.00;1.00
15638;DHT22;26604;53.596;10.042;2023-11-22T20:36:52;5.00;99.90
15638;DHT22;26604;53.596;10.042;2023-11-22T20:39:19;5.10;1.00
15638;DHT22;26604;53.596;10.042;2023-11-22T20:41:46;5.10;1.00
15638;DHT22;26604;53.596;10.042;2023-11-22T20:44:14;5.10;1.00
15638;DHT22;26604;53.596;10.042;2023-11-22T20:46:43;5.10;1.00
15638;DHT22;26604;53.596;10.042;2023-11-22T20:49:10;5.20;1.00
15638;DHT22;26604;53.596;10.042;2023-11-22T20:51:37;5.20;1.00
15638;DHT22;26604;53.596;10.042;2023-11-22T20:54:04;5.20;1.00
15638;DHT22;26604;53.596;10.042;2023-11-22T20:56:30;5.20;1.00
15638;DHT22;26604;53.596;10.042;2023-11-22T20:58:57;5.20;1.00
15638;DHT22;26604;53.596;10.042;2023-11-22T21:01:24;5.20;1.00
15638;DHT22;26604;53.596;10.042;2023-11-22T21:03:52;5.20;1.00
15638;DHT22;26604;53.596;10.042;2023-11-22T21:06:19;5.30;1.00
15638;DHT22;26604;53.596;10.042;2023-11-22T21:08:46;5.30;1.00
15638;DHT22;26604;53.596;10.042;2023-11-22T21:11:13;5.40;1.00
15638;DHT22;26604;53.596;10.042;2023-11-22T21:13:40;5.40;1.00